createdAt,value
2023-04-30T00:00:23.743Z,11.90
2023-04-30T00:02:50.111Z,11.80
2023-04-30T00:05:16.442Z,11.80
2023-04-30T00:07:42.895Z,11.70
2023-04-30T00:10:10.426Z,11.70
2023-04-30T00:12:37.397Z,11.60
2023-04-30T00:15:04.202Z,11.60
2023-04-30T00:17:30.483Z,11.50
2023-04-30T00:19:56.979Z,11.50
2023-04-30T00:22:23.360Z,11.40
2023-04-30T00:24:49.535Z,11.40
2023-04-30T00:27:15.732Z,11.30
2023-04-30T00:29:42.153Z,11.30
2023-04-30T00:32:08.985Z,11.20
2023-04-30T00:34:35.469Z,11.20
2023-04-30T00:37:01.911Z,11.10
2023-04-30T00:39:28.167Z,11.10
2023-04-30T00:41:54.766Z,11.00
2023-04-30T00:44:21.285Z,11.00
2023-04-30T00:46:47.551Z,10.90
2023-04-30T00:49:14.781Z,10.90
2023-04-30T00:51:41.661Z,10.80
2023-04-30T00:54:08.693Z,10.80
2023-04-30T00:56:37.503Z,10.80
2023-04-30T00:59:03.806Z,10.70
2023-04-30T01:01:31.189Z,10.70
2023-04-30T01:03:57.988Z,10.60
2023-04-30T01:06:26.210Z,10.60
2023-04-30T01:08:53.506Z,10.50
2023-04-30T01:11:44.946Z,10.50
2023-04-30T01:14:29.406Z,10.40
2023-04-30T01:17:18.532Z,10.40
2023-04-30T01:19:45.837Z,10.30
2023-04-30T01:22:23.950Z,10.30
2023-04-30T01:25:25.635Z,10.20
2023-04-30T01:28:21.714Z,10.10
2023-04-30T01:30:49.209Z,10.10
2023-04-30T01:33:15.554Z,10.10
2023-04-30T01:36:31.383Z,10.00
2023-04-30T01:39:33.738Z,9.90
2023-04-30T01:42:16.851Z,9.90
2023-04-30T01:45:04.497Z,9.80
2023-04-30T01:47:44.751Z,9.80
2023-04-30T01:50:42.314Z,9.70
2023-04-30T01:53:16.291Z,9.70
2023-04-30T01:55:50.366Z,9.70
2023-04-30T01:58:17.319Z,9.60
2023-04-30T02:00:43.469Z,9.60
2023-04-30T02:03:10.155Z,9.60
2023-04-30T02:05:36.435Z,9.50
2023-04-30T02:08:03.115Z,9.50
2023-04-30T02:10:29.815Z,9.50
2023-04-30T02:12:56.093Z,9.40
2023-04-30T02:15:22.404Z,9.40
2023-04-30T02:17:48.684Z,9.40
2023-04-30T02:20:14.956Z,9.40
2023-04-30T02:22:42.530Z,9.30
2023-04-30T02:25:10.834Z,9.30
2023-04-30T02:27:37.547Z,9.20
2023-04-30T02:30:05.044Z,9.20
2023-04-30T02:32:31.687Z,9.20
2023-04-30T02:34:58.325Z,9.20
2023-04-30T02:37:25.322Z,9.10
2023-04-30T02:39:52.680Z,9.10
2023-04-30T02:42:18.958Z,9.10
2023-04-30T02:44:45.190Z,9.00
2023-04-30T02:47:11.488Z,9.00
2023-04-30T02:49:38.104Z,9.00
2023-04-30T02:52:04.406Z,9.00
2023-04-30T02:54:30.895Z,8.90
2023-04-30T02:56:57.295Z,8.90
2023-04-30T02:59:23.556Z,8.90
2023-04-30T03:01:49.772Z,8.90
2023-04-30T03:04:16.103Z,8.90
2023-04-30T03:06:42.532Z,8.80
2023-04-30T03:09:08.755Z,8.80
2023-04-30T03:11:36.782Z,8.80
2023-04-30T03:14:04.190Z,8.80
2023-04-30T03:16:30.492Z,8.80
2023-04-30T03:18:56.777Z,8.80
2023-04-30T03:21:23.322Z,8.80
2023-04-30T03:23:49.569Z,8.70
2023-04-30T03:26:15.788Z,8.70
2023-04-30T03:28:42.057Z,8.70
2023-04-30T03:31:08.308Z,8.70
2023-04-30T03:33:34.716Z,8.70
2023-04-30T03:36:01.218Z,8.70
2023-04-30T03:38:27.444Z,8.70
2023-04-30T03:40:53.627Z,8.70
2023-04-30T03:43:21.419Z,8.60
2023-04-30T03:45:47.649Z,8.60
2023-04-30T03:48:14.234Z,8.60
2023-04-30T03:50:40.719Z,8.60
2023-04-30T03:53:06.955Z,8.60
2023-04-30T03:55:35.354Z,8.60
2023-04-30T03:58:01.973Z,8.60
2023-04-30T04:00:28.423Z,8.60
2023-04-30T04:02:56.725Z,8.60
2023-04-30T04:05:22.944Z,8.60
2023-04-30T04:07:49.159Z,8.50
2023-04-30T04:10:15.815Z,8.50
2023-04-30T04:12:42.362Z,8.50
2023-04-30T04:15:09.282Z,8.50
2023-04-30T04:17:35.636Z,8.50
2023-04-30T04:20:02.022Z,8.50
2023-04-30T04:22:28.758Z,8.50
2023-04-30T04:24:55.851Z,8.50
2023-04-30T04:27:23.107Z,8.50
2023-04-30T04:29:49.714Z,8.40
2023-04-30T04:32:15.869Z,8.40
2023-04-30T04:34:43.348Z,8.40
2023-04-30T04:37:09.565Z,8.40
2023-04-30T04:39:36.697Z,8.50
2023-04-30T04:42:06.044Z,8.50
2023-04-30T04:44:32.682Z,8.50
2023-04-30T04:46:58.991Z,8.50
2023-04-30T04:49:25.658Z,8.50
2023-04-30T04:51:52.246Z,8.50
2023-04-30T04:54:18.836Z,8.50
2023-04-30T04:56:45.048Z,8.50
2023-04-30T04:59:12.248Z,8.60
2023-04-30T05:01:38.867Z,8.60
2023-04-30T05:04:05.355Z,8.60
2023-04-30T05:06:31.901Z,8.60
2023-04-30T05:08:58.357Z,8.70
2023-04-30T05:11:24.727Z,8.70
2023-04-30T05:13:51.521Z,8.70
2023-04-30T05:16:18.023Z,8.70
2023-04-30T05:18:44.296Z,8.80
2023-04-30T05:21:10.733Z,8.80
2023-04-30T05:23:37.049Z,8.90
2023-04-30T05:26:04.039Z,8.90
2023-04-30T05:28:30.917Z,9.00
2023-04-30T05:30:57.711Z,9.00
2023-04-30T05:33:26.926Z,9.10
2023-04-30T05:35:53.081Z,9.10
2023-04-30T05:38:22.411Z,9.10
2023-04-30T05:40:48.646Z,9.20
2023-04-30T05:43:24.379Z,9.20
2023-04-30T05:45:50.638Z,9.30
2023-04-30T05:48:17.149Z,9.30
2023-04-30T05:50:43.618Z,9.30
2023-04-30T05:53:10.020Z,9.40
2023-04-30T05:55:43.174Z,9.40
2023-04-30T05:58:09.845Z,9.50
2023-04-30T06:00:36.826Z,9.50
2023-04-30T06:03:03.523Z,9.60
2023-04-30T06:05:30.526Z,9.60
2023-04-30T06:07:56.732Z,9.70
2023-04-30T06:10:23.496Z,9.70
2023-04-30T06:12:53.954Z,9.80
2023-04-30T06:15:26.659Z,9.80
2023-04-30T06:17:52.976Z,9.90
2023-04-30T06:20:54.642Z,10.00
2023-04-30T06:23:21.643Z,10.00
2023-04-30T06:25:48.235Z,10.10
2023-04-30T06:28:24.710Z,10.20
2023-04-30T06:31:04.985Z,10.30
2023-04-30T06:33:33.863Z,10.40
2023-04-30T06:36:00.072Z,10.40
2023-04-30T06:38:26.559Z,10.50
2023-04-30T06:40:52.762Z,10.60
2023-04-30T06:43:19.330Z,10.70
2023-04-30T06:45:45.974Z,10.80
2023-04-30T06:48:12.556Z,10.90
2023-04-30T06:50:44.292Z,10.90
2023-04-30T06:53:14.875Z,11.00
2023-04-30T06:55:42.333Z,11.10
2023-04-30T06:58:08.646Z,11.20
2023-04-30T07:00:35.322Z,11.30
2023-04-30T07:03:01.935Z,11.40
2023-04-30T07:05:32.023Z,11.50
2023-04-30T07:08:01.031Z,11.60
2023-04-30T07:10:27.358Z,11.70
2023-04-30T07:12:53.536Z,11.80
2023-04-30T07:15:19.809Z,11.90
2023-04-30T07:17:46.044Z,12.10
2023-04-30T07:20:15.937Z,12.20
2023-04-30T07:22:46.289Z,12.30
2023-04-30T07:25:13.598Z,12.40
2023-04-30T07:27:40.352Z,12.50
2023-04-30T07:30:09.234Z,12.70
2023-04-30T07:32:38.694Z,12.80
2023-04-30T07:35:05.485Z,12.90
2023-04-30T07:37:35.548Z,13.10
2023-04-30T07:40:03.384Z,13.20
2023-04-30T07:42:29.688Z,13.40
2023-04-30T07:44:55.939Z,13.50
2023-04-30T07:47:22.171Z,13.70
2023-04-30T07:49:49.411Z,13.80
2023-04-30T07:52:15.855Z,14.00
2023-04-30T07:54:42.007Z,14.20
2023-04-30T07:57:08.339Z,14.30
2023-04-30T07:59:34.923Z,14.50
2023-04-30T08:02:01.301Z,14.60
2023-04-30T08:04:27.730Z,14.80
2023-04-30T08:06:53.940Z,14.90
2023-04-30T08:09:20.232Z,15.10
2023-04-30T08:11:46.489Z,15.20
2023-04-30T08:14:12.727Z,15.30
2023-04-30T08:16:39.094Z,15.50
2023-04-30T08:19:05.278Z,15.60
2023-04-30T08:21:31.691Z,15.70
2023-04-30T08:23:57.901Z,15.90
2023-04-30T08:26:25.410Z,16.00
2023-04-30T08:28:51.645Z,16.20
2023-04-30T08:31:18.195Z,16.30
2023-04-30T08:33:44.917Z,16.40
2023-04-30T08:36:11.248Z,16.50
2023-04-30T08:38:37.474Z,16.60
2023-04-30T08:41:13.385Z,16.70
2023-04-30T08:43:41.226Z,16.90
2023-04-30T08:46:08.196Z,17.00
2023-04-30T08:48:34.707Z,17.10
2023-04-30T08:51:03.464Z,17.20
2023-04-30T08:53:34.057Z,17.30
2023-04-30T08:56:00.488Z,17.40
2023-04-30T08:58:26.914Z,17.50
2023-04-30T09:00:53.192Z,17.60
2023-04-30T09:03:21.412Z,17.70
2023-04-30T09:05:47.763Z,17.80
2023-04-30T09:08:19.864Z,17.90
2023-04-30T09:10:46.250Z,18.10
2023-04-30T09:13:13.453Z,18.20
2023-04-30T09:15:41.367Z,18.30
2023-04-30T09:18:16.637Z,18.40
2023-04-30T09:21:01.420Z,18.50
2023-04-30T09:23:28.771Z,18.60
2023-04-30T09:25:56.433Z,18.70
2023-04-30T09:28:24.936Z,18.80
2023-04-30T09:30:52.306Z,18.90
2023-04-30T09:33:19.836Z,19.00
2023-04-30T09:35:46.096Z,19.10
2023-04-30T09:38:32.950Z,19.10
2023-04-30T09:41:01.579Z,19.20
2023-04-30T09:43:28.885Z,19.30
2023-04-30T09:45:57.869Z,19.40
2023-04-30T09:48:27.512Z,19.50
2023-04-30T09:50:53.845Z,19.60
2023-04-30T09:53:20.957Z,19.60
2023-04-30T09:55:50.252Z,19.70
2023-04-30T09:58:18.677Z,19.80
2023-04-30T10:00:47.765Z,19.90
2023-04-30T10:03:15.764Z,20.00
2023-04-30T10:05:48.049Z,20.00
2023-04-30T10:08:31.274Z,20.10
2023-04-30T10:11:06.854Z,20.20
2023-04-30T10:13:46.152Z,20.30
2023-04-30T10:17:00.748Z,20.30
2023-04-30T10:19:33.124Z,20.40
2023-04-30T10:22:00.911Z,20.50
2023-04-30T10:24:27.692Z,20.60
2023-04-30T10:26:56.586Z,20.60
2023-04-30T10:29:23.180Z,20.60
2023-04-30T10:31:53.606Z,20.70
2023-04-30T10:34:26.214Z,20.70
2023-04-30T10:37:00.845Z,20.80
2023-04-30T10:39:28.168Z,20.80
2023-04-30T10:42:06.131Z,20.80
2023-04-30T10:44:35.712Z,20.90
2023-04-30T10:47:04.296Z,21.00
2023-04-30T10:49:30.875Z,21.10
2023-04-30T10:52:05.474Z,21.10
2023-04-30T10:54:36.186Z,21.20
2023-04-30T10:57:19.520Z,21.30
2023-04-30T11:00:13.836Z,21.30
2023-04-30T11:02:43.328Z,21.40
2023-04-30T11:05:12.965Z,21.40
2023-04-30T11:07:51.551Z,21.40
2023-04-30T11:10:25.712Z,21.40
2023-04-30T11:12:55.413Z,21.50
2023-04-30T11:15:30.936Z,21.60
2023-04-30T11:17:59.813Z,21.70
2023-04-30T11:20:27.400Z,21.70
2023-04-30T11:23:37.895Z,21.70
2023-04-30T11:26:08.265Z,21.90
2023-04-30T11:28:37.745Z,21.90
2023-04-30T11:31:05.453Z,22.00
2023-04-30T11:33:34.920Z,22.10
2023-04-30T11:36:05.749Z,22.10
2023-04-30T11:38:36.539Z,22.20
2023-04-30T11:41:04.623Z,22.30
2023-04-30T11:43:34.108Z,22.30
2023-04-30T11:46:27.394Z,22.40
2023-04-30T11:48:53.748Z,22.50
2023-04-30T11:51:28.288Z,22.50
2023-04-30T11:53:54.930Z,22.60
2023-04-30T11:56:24.691Z,22.60
2023-04-30T11:58:55.934Z,22.70
2023-04-30T12:01:27.980Z,22.80
2023-04-30T12:03:56.937Z,22.80
2023-04-30T12:06:30.644Z,22.80
2023-04-30T12:09:06.811Z,22.80
2023-04-30T12:11:34.966Z,22.80
2023-04-30T12:14:12.133Z,22.70
2023-04-30T12:16:50.340Z,22.50
2023-04-30T12:19:19.141Z,22.40
2023-04-30T12:21:47.930Z,22.40
2023-04-30T12:24:16.916Z,22.40
2023-04-30T12:26:44.287Z,22.50
2023-04-30T12:29:15.746Z,22.60
2023-04-30T12:31:43.307Z,22.60
2023-04-30T12:34:14.321Z,22.70
2023-04-30T12:36:43.574Z,22.70
2023-04-30T12:39:15.374Z,22.80
2023-04-30T12:41:49.997Z,22.90
2023-04-30T12:44:26.869Z,23.00
2023-04-30T12:46:59.101Z,23.10
2023-04-30T12:49:28.848Z,23.10
2023-04-30T12:52:12.068Z,23.20
2023-04-30T12:54:39.660Z,23.20
2023-04-30T12:57:11.788Z,23.20
2023-04-30T12:59:54.319Z,23.20
2023-04-30T13:02:25.771Z,23.10
2023-04-30T13:04:54.048Z,23.00
2023-04-30T13:07:24.155Z,23.00
2023-04-30T13:09:51.544Z,23.00
2023-04-30T13:12:21.180Z,23.10
2023-04-30T13:14:47.853Z,23.10
2023-04-30T13:17:14.754Z,23.00
2023-04-30T13:19:41.483Z,23.10
2023-04-30T13:22:08.525Z,23.20
2023-04-30T13:24:36.370Z,23.20
2023-04-30T13:27:03.661Z,23.10
2023-04-30T13:29:31.382Z,23.10
2023-04-30T13:32:01.410Z,23.00
2023-04-30T13:34:29.729Z,23.00
2023-04-30T13:36:56.967Z,23.00
2023-04-30T13:39:24.269Z,22.90
2023-04-30T13:41:54.390Z,22.90
2023-04-30T13:44:21.037Z,22.80
2023-04-30T13:46:47.759Z,22.80
2023-04-30T13:49:14.319Z,22.80
2023-04-30T13:51:41.475Z,22.80
2023-04-30T13:54:08.165Z,22.80
2023-04-30T13:56:35.061Z,22.80
2023-04-30T13:59:02.479Z,22.70
2023-04-30T14:01:29.443Z,22.70
2023-04-30T14:03:56.891Z,22.60
2023-04-30T14:06:23.547Z,22.60
2023-04-30T14:08:50.460Z,22.40
2023-04-30T14:11:17.756Z,22.50
2023-04-30T14:13:46.560Z,22.40
2023-04-30T14:16:13.424Z,22.30
2023-04-30T14:18:40.097Z,22.40
2023-04-30T14:21:07.600Z,22.30
2023-04-30T14:23:34.446Z,22.30
2023-04-30T14:26:01.414Z,22.30
2023-04-30T14:28:28.287Z,22.20
2023-04-30T14:30:57.641Z,22.20
2023-04-30T14:33:26.898Z,22.20
2023-04-30T14:36:01.368Z,22.20
2023-04-30T14:38:28.097Z,22.20
2023-04-30T14:40:54.594Z,22.20
2023-04-30T14:43:21.327Z,22.20
2023-04-30T14:45:47.771Z,22.20
2023-04-30T14:48:14.253Z,22.20
2023-04-30T14:50:41.864Z,22.20
2023-04-30T14:53:09.879Z,22.20
2023-04-30T14:55:37.575Z,22.20
2023-04-30T14:58:04.542Z,22.20
2023-04-30T15:00:32.480Z,22.20
2023-04-30T15:03:00.070Z,22.20
2023-04-30T15:05:28.093Z,22.30
2023-04-30T15:07:54.409Z,22.30
2023-04-30T15:10:21.150Z,22.30
2023-04-30T15:12:48.073Z,22.30
2023-04-30T15:15:19.739Z,22.30
2023-04-30T15:17:46.156Z,22.20
2023-04-30T15:20:13.134Z,22.20
2023-04-30T15:22:41.730Z,22.20
2023-04-30T15:25:08.744Z,22.30
2023-04-30T15:27:36.189Z,22.30
2023-04-30T15:30:05.971Z,22.30
2023-04-30T15:32:32.600Z,22.30
2023-04-30T15:34:59.464Z,22.40
2023-04-30T15:37:26.493Z,22.40
2023-04-30T15:40:05.713Z,22.50
2023-04-30T15:42:56.284Z,22.40
2023-04-30T15:45:41.502Z,22.40
2023-04-30T15:48:08.387Z,22.40
2023-04-30T15:50:41.875Z,22.30
2023-04-30T15:53:10.915Z,22.30
2023-04-30T15:55:39.612Z,22.30
2023-04-30T15:58:11.837Z,22.20
2023-04-30T16:00:43.388Z,22.20
2023-04-30T16:03:15.873Z,22.10
2023-04-30T16:05:43.161Z,22.10
2023-04-30T16:08:15.290Z,22.10
2023-04-30T16:10:42.789Z,22.10
2023-04-30T16:13:12.863Z,22.00
2023-04-30T16:15:40.352Z,22.00
2023-04-30T16:18:07.237Z,22.10
2023-04-30T16:20:33.526Z,22.10
2023-04-30T16:23:00.252Z,22.10
2023-04-30T16:25:26.539Z,22.10
2023-04-30T16:27:52.841Z,22.20
2023-04-30T16:30:19.084Z,22.10
2023-04-30T16:32:45.319Z,22.10
2023-04-30T16:35:11.822Z,22.10
2023-04-30T16:37:38.119Z,22.00
2023-04-30T16:40:06.752Z,22.00
2023-04-30T16:42:33.583Z,21.90
2023-04-30T16:44:59.838Z,21.90
2023-04-30T16:47:26.299Z,21.90
2023-04-30T16:49:52.712Z,21.90
2023-04-30T16:52:19.273Z,21.80
2023-04-30T16:54:45.572Z,21.80
2023-04-30T16:57:11.760Z,21.70
2023-04-30T16:59:38.029Z,21.70
2023-04-30T17:02:06.136Z,21.70
2023-04-30T17:04:32.730Z,21.70
2023-04-30T17:06:59.705Z,21.70
2023-04-30T17:09:26.155Z,21.70
2023-04-30T17:11:52.420Z,21.60
2023-04-30T17:14:18.608Z,21.60
2023-04-30T17:16:46.180Z,21.60
2023-04-30T17:19:15.599Z,21.60
2023-04-30T17:21:42.015Z,21.60
2023-04-30T17:24:08.943Z,21.60
2023-04-30T17:26:35.219Z,21.60
2023-04-30T17:29:01.405Z,21.50
2023-04-30T17:31:30.680Z,21.50
2023-04-30T17:33:57.170Z,21.60
2023-04-30T17:36:24.175Z,21.60
2023-04-30T17:38:50.623Z,21.50
2023-04-30T17:41:17.842Z,21.50
2023-04-30T17:43:44.012Z,21.50
2023-04-30T17:46:11.164Z,21.50
2023-04-30T17:48:37.334Z,21.50
2023-04-30T17:51:04.236Z,21.50
2023-04-30T17:53:30.519Z,21.50
2023-04-30T17:55:58.494Z,21.40
2023-04-30T17:58:25.672Z,21.40
2023-04-30T18:00:53.117Z,21.40
2023-04-30T18:03:19.363Z,21.40
2023-04-30T18:05:45.709Z,21.30
2023-04-30T18:08:11.952Z,21.30
2023-04-30T18:10:38.389Z,21.30
2023-04-30T18:13:04.678Z,21.20
2023-04-30T18:15:38.687Z,21.20
2023-04-30T18:18:04.965Z,21.10
2023-04-30T18:20:31.357Z,21.10
2023-04-30T18:22:57.515Z,21.00
2023-04-30T18:25:23.958Z,21.00
2023-04-30T18:27:50.744Z,20.90
2023-04-30T18:30:17.075Z,20.90
2023-04-30T18:32:43.668Z,20.80
2023-04-30T18:35:10.200Z,20.70
2023-04-30T18:37:36.644Z,20.70
2023-04-30T18:40:04.189Z,20.60
2023-04-30T18:42:30.876Z,20.50
2023-04-30T18:44:57.394Z,20.50
2023-04-30T18:47:24.251Z,20.40
2023-04-30T18:49:50.460Z,20.30
2023-04-30T18:52:16.635Z,20.30
2023-04-30T18:54:43.179Z,20.20
2023-04-30T18:57:11.907Z,20.10
2023-04-30T18:59:38.887Z,20.00
2023-04-30T19:02:05.755Z,19.90
2023-04-30T19:04:32.035Z,19.80
2023-04-30T19:06:58.239Z,19.70
2023-04-30T19:09:24.682Z,19.60
2023-04-30T19:11:51.084Z,19.50
2023-04-30T19:14:17.544Z,19.40
2023-04-30T19:16:43.926Z,19.20
2023-04-30T19:19:10.467Z,19.10
2023-04-30T19:21:36.652Z,19.00
2023-04-30T19:24:03.247Z,18.90
2023-04-30T19:26:31.576Z,18.80
2023-04-30T19:28:58.943Z,18.70
2023-04-30T19:31:25.473Z,18.60
2023-04-30T19:33:52.012Z,18.40
2023-04-30T19:36:18.327Z,18.30
2023-04-30T19:38:44.483Z,18.20
2023-04-30T19:41:10.946Z,18.10
2023-04-30T19:43:37.759Z,18.00
2023-04-30T19:46:07.073Z,17.90
2023-04-30T19:48:33.362Z,17.80
2023-04-30T19:51:03.329Z,17.70
2023-04-30T19:53:29.916Z,17.60
2023-04-30T19:55:56.254Z,17.50
2023-04-30T19:58:23.046Z,17.40
2023-04-30T20:00:49.515Z,17.30
2023-04-30T20:03:16.676Z,17.20
2023-04-30T20:05:44.137Z,17.10
2023-04-30T20:08:10.657Z,17.10
2023-04-30T20:10:38.132Z,17.00
2023-04-30T20:13:05.922Z,16.90
2023-04-30T20:15:33.160Z,16.80
2023-04-30T20:18:04.984Z,16.70
2023-04-30T20:20:31.551Z,16.60
2023-04-30T20:22:57.861Z,16.50
2023-04-30T20:25:25.446Z,16.40
2023-04-30T20:27:51.659Z,16.30
2023-04-30T20:30:17.893Z,16.20
2023-04-30T20:32:44.079Z,16.20
2023-04-30T20:35:10.514Z,16.10
2023-04-30T20:37:37.420Z,16.00
2023-04-30T20:40:07.088Z,15.90
2023-04-30T20:42:33.722Z,15.90
2023-04-30T20:45:01.045Z,15.80
2023-04-30T20:47:28.457Z,15.70
2023-04-30T20:49:55.412Z,15.70
2023-04-30T20:52:21.784Z,15.60
2023-04-30T20:54:49.336Z,15.50
2023-04-30T20:57:16.468Z,15.40
2023-04-30T20:59:43.029Z,15.40
2023-04-30T21:02:09.817Z,15.30
2023-04-30T21:04:36.524Z,15.20
2023-04-30T21:07:02.657Z,15.20
2023-04-30T21:09:28.841Z,15.10
2023-04-30T21:11:55.071Z,15.00
2023-04-30T21:14:21.260Z,15.00
2023-04-30T21:16:47.916Z,14.90
2023-04-30T21:19:14.384Z,14.80
2023-04-30T21:21:40.541Z,14.80
2023-04-30T21:24:08.077Z,14.70
2023-04-30T21:26:34.741Z,14.70
2023-04-30T21:29:02.144Z,14.60
2023-04-30T21:31:28.578Z,14.50
2023-04-30T21:33:55.207Z,14.50
2023-04-30T21:36:21.504Z,14.40
2023-04-30T21:38:47.829Z,14.40
2023-04-30T21:41:17.685Z,14.30
2023-04-30T21:43:44.223Z,14.20
2023-04-30T21:46:12.593Z,14.20
2023-04-30T21:48:39.113Z,14.10
2023-04-30T21:51:14.041Z,14.10
2023-04-30T21:53:41.244Z,14.00
2023-04-30T21:56:09.546Z,13.90
2023-04-30T21:58:36.735Z,13.90
2023-04-30T22:01:04.516Z,13.80
2023-04-30T22:03:31.606Z,13.80
2023-04-30T22:05:58.598Z,13.70
2023-04-30T22:08:24.958Z,13.70
2023-04-30T22:10:59.870Z,13.60
2023-04-30T22:13:27.460Z,13.60
2023-04-30T22:15:54.274Z,13.60
2023-04-30T22:18:22.398Z,13.50
2023-04-30T22:20:50.299Z,13.50
2023-04-30T22:23:22.748Z,13.50
2023-04-30T22:25:49.694Z,13.40
2023-04-30T22:28:20.208Z,13.40
2023-04-30T22:30:46.435Z,13.40
2023-04-30T22:33:12.954Z,13.40
2023-04-30T22:35:39.415Z,13.40
2023-04-30T22:38:06.810Z,13.30
2023-04-30T22:40:37.623Z,13.30
2023-04-30T22:43:04.474Z,13.30
2023-04-30T22:45:30.736Z,13.30
2023-04-30T22:47:58.385Z,13.30
2023-04-30T22:50:26.357Z,13.20
2023-04-30T22:52:53.574Z,13.20
2023-04-30T22:55:20.035Z,13.20
2023-04-30T22:57:46.190Z,13.20
2023-04-30T23:00:13.825Z,13.20
2023-04-30T23:02:40.015Z,13.20
2023-04-30T23:05:07.092Z,13.20
2023-04-30T23:07:33.538Z,13.20
2023-04-30T23:09:59.959Z,13.20
2023-04-30T23:12:26.384Z,13.20
2023-04-30T23:14:52.871Z,13.20
2023-04-30T23:17:19.148Z,13.20
2023-04-30T23:19:45.331Z,13.20
2023-04-30T23:22:11.572Z,13.20
2023-04-30T23:24:38.402Z,13.20
2023-04-30T23:27:04.561Z,13.20
2023-04-30T23:29:30.785Z,13.20
2023-04-30T23:31:57.185Z,13.20
2023-04-30T23:34:23.656Z,13.20
2023-04-30T23:36:49.959Z,13.20
2023-04-30T23:39:16.254Z,13.20
2023-04-30T23:41:42.494Z,13.20
2023-04-30T23:44:08.911Z,13.20
2023-04-30T23:46:35.147Z,13.20
2023-04-30T23:49:01.646Z,13.20
2023-04-30T23:51:29.550Z,13.20
2023-04-30T23:53:55.881Z,13.20
2023-04-30T23:56:22.112Z,13.20
2023-04-30T23:58:48.314Z,13.20
